Hawthorne, CA

11:14 AM PST on February 26, 2017 (GMT -0800)
Mikey's Hawthorne Weather | | Change Station

Elev 75 ft 33.90 °N, 118.36 °W | Updated 25 seconds ago

Overcast
Overcast
54.4 °F
Feels Like 54.4 °F
N
4.0
Wind Variable Wind from NE

Today
High -- | Low -- °F
--% Chance of Precip.
Yesterday
High -- | Low -- °F
Precip. -- in
Pressure 30.03 in
Visibility 6.0 miles
Clouds Few 1900 ft
Mostly Cloudy 2700 ft
Overcast 3500 ft
Dew Point 48 °F
Humidity 79%
Rainfall 0.05 in
Snow Depth Not available.
6:25 AM 5:47 PM
New Moon, 0% visible
SPECI KHHR 261908Z 11006KT 6SM RA BR FEW019 BKN027 OVC035 11/09 A3003 RMK AO2 T01110089 PNO $
Pressure 30.03 in
Visibility 6.0 miles
Clouds Few 1900 ft
Mostly Cloudy 2700 ft
Overcast 3500 ft
Dew Point 48 °F
Humidity 79%
Rainfall 0.05 in
Snow Depth Not available.
6:25 AM 5:47 PM
New Moon, 0% visible
SPECI KHHR 261908Z 11006KT 6SM RA BR FEW019 BKN027 OVC035 11/09 A3003 RMK AO2 T01110089 PNO $

Get Your Daily Forecast Email!

Thanks for signing up!

Be on the lookout for a verification email in your inbox.

You'll start receiving the daily forecast at 8 AM.

×

10-Day Weather Forecast

Almanac

Astronomy

Feb. 26, 2017 Rise Set
Actual Time
Civil Twilight
Nautical Twilight
Astronomical Twilight
Moon
Length of Visible Light
Length of Day
Tomorrow will be .
, % of the Moon is Illuminated

Today's Extremes

State Highs State Lows

Community

WunderPhotos

Upload Photos

1,962,540 photos uploaded!

WunderBlog® & News

Nearby

Air Quality

  Air Quality AQ Index Pollutant
Not available.

Snow Depth

Station Depth Elevation

Earthquake Activity

City Distance Mag. Time & Date
Minimum magnitude displayed is 2.5.

Coastal Water Temperatures

Place Temperature

Stations

Nearby Weather Stations

Station Location Temp. Windchill Dew Point Humidity Wind Precip. Elev Updated Type
                   

Watches & Warnings

There are currently no watches in effect.